createdAt,value
2019-05-10T00:00:15.044Z,18.15
2019-05-10T00:03:02.081Z,20.30
2019-05-10T00:05:49.092Z,15.50
2019-05-10T00:08:35.476Z,13.05
2019-05-10T00:11:06.390Z,17.95
2019-05-10T00:13:52.841Z,14.87
2019-05-10T00:16:22.027Z,14.40
2019-05-10T00:18:50.497Z,14.23
2019-05-10T00:21:19.075Z,14.65
2019-05-10T00:23:47.525Z,13.93
2019-05-10T00:26:16.049Z,17.77
2019-05-10T00:28:44.619Z,16.15
2019-05-10T00:31:13.071Z,16.05
2019-05-10T00:33:41.519Z,15.85
2019-05-10T00:36:10.013Z,16.75
2019-05-10T00:38:38.476Z,15.40
2019-05-10T00:41:06.930Z,14.65
2019-05-10T00:43:35.417Z,14.65
2019-05-10T00:46:03.953Z,17.25
2019-05-10T00:48:32.410Z,14.58
2019-05-10T00:51:00.906Z,15.25
2019-05-10T00:53:29.366Z,17.20
2019-05-10T00:55:57.821Z,15.25
2019-05-10T00:58:26.316Z,17.20
2019-05-10T01:00:54.775Z,17.27
2019-05-10T01:03:23.244Z,12.35
2019-05-10T01:05:51.824Z,15.70
2019-05-10T01:08:20.309Z,19.25
2019-05-10T01:10:48.780Z,14.83
2019-05-10T01:13:17.362Z,18.82
2019-05-10T01:15:46.925Z,18.07
2019-05-10T01:18:15.551Z,13.95
2019-05-10T01:20:44.120Z,15.10
2019-05-10T01:23:12.642Z,16.37
2019-05-10T01:25:41.096Z,15.58
2019-05-10T01:28:09.629Z,16.48
2019-05-10T01:30:38.144Z,20.25
2019-05-10T01:33:06.616Z,16.85
2019-05-10T01:35:35.172Z,19.23
2019-05-10T01:38:03.619Z,14.93
2019-05-10T01:40:32.072Z,13.45
2019-05-10T01:43:00.563Z,20.40
2019-05-10T01:45:29.035Z,18.62
2019-05-10T01:47:57.500Z,21.10
2019-05-10T01:50:25.991Z,18.90
2019-05-10T01:52:54.448Z,18.73
2019-05-10T01:55:22.915Z,19.75
2019-05-10T01:57:51.473Z,18.98
2019-05-10T02:00:20.103Z,20.55
2019-05-10T02:02:48.559Z,18.12
2019-05-10T02:05:17.405Z,21.85
2019-05-10T02:07:45.940Z,15.03
2019-05-10T02:10:14.735Z,17.05
2019-05-10T02:12:43.288Z,14.55
2019-05-10T02:15:11.927Z,17.25
2019-05-10T02:17:40.377Z,19.80
2019-05-10T02:20:09.305Z,18.23
2019-05-10T02:22:37.772Z,17.25
2019-05-10T02:25:06.662Z,18.57
2019-05-10T02:27:35.336Z,16.75
2019-05-10T02:30:05.389Z,19.60
2019-05-10T02:32:33.911Z,16.60
2019-05-10T02:35:02.409Z,17.42
2019-05-10T02:37:30.859Z,19.62
2019-05-10T02:39:59.324Z,20.15
2019-05-10T02:42:27.818Z,19.42
2019-05-10T02:44:56.360Z,19.17
2019-05-10T02:47:24.879Z,19.95
2019-05-10T02:49:53.403Z,18.80
2019-05-10T02:52:22.013Z,18.80
2019-05-10T02:54:50.466Z,18.67
2019-05-10T02:57:20.505Z,18.60
2019-05-10T02:59:49.817Z,20.45
2019-05-10T03:02:18.567Z,18.77
2019-05-10T03:04:47.216Z,22.48
2019-05-10T03:07:18.179Z,18.15
2019-05-10T03:09:49.114Z,20.88
2019-05-10T03:12:26.396Z,19.70
2019-05-10T03:14:57.205Z,21.23
2019-05-10T03:17:27.711Z,22.77
2019-05-10T03:20:17.065Z,18.57
2019-05-10T03:22:45.607Z,22.10
2019-05-10T03:25:14.642Z,23.55
2019-05-10T03:27:43.597Z,21.07
2019-05-10T03:30:12.469Z,22.25
2019-05-10T03:32:41.066Z,21.55
2019-05-10T03:35:10.891Z,20.32
2019-05-10T03:37:39.420Z,23.87
2019-05-10T03:40:08.924Z,27.98
2019-05-10T03:42:37.483Z,22.98
2019-05-10T03:45:07.887Z,20.08
2019-05-10T03:47:36.346Z,25.20
2019-05-10T03:50:08.302Z,21.00
2019-05-10T03:52:36.876Z,21.93
2019-05-10T03:55:07.184Z,19.00
2019-05-10T03:57:35.903Z,19.00
2019-05-10T04:00:11.875Z,18.82
2019-05-10T04:02:40.448Z,18.00
2019-05-10T04:05:09.747Z,17.17
2019-05-10T04:07:38.208Z,21.85
2019-05-10T04:10:06.966Z,21.68
2019-05-10T04:12:35.669Z,19.87
2019-05-10T04:15:06.945Z,21.25
2019-05-10T04:17:35.451Z,22.48
2019-05-10T04:20:06.757Z,23.18
2019-05-10T04:22:35.304Z,23.22
2019-05-10T04:25:04.936Z,23.83
2019-05-10T04:27:33.613Z,25.43
2019-05-10T04:30:02.171Z,24.65
2019-05-10T04:32:30.738Z,27.48
2019-05-10T04:34:59.197Z,27.80
2019-05-10T04:37:27.651Z,28.17
2019-05-10T04:39:56.182Z,24.55
2019-05-10T04:42:24.712Z,28.60
2019-05-10T04:44:54.108Z,24.32
2019-05-10T04:47:22.816Z,26.17
2019-05-10T04:49:51.284Z,29.15
2019-05-10T04:52:19.802Z,24.30
2019-05-10T04:54:48.374Z,25.20
2019-05-10T04:57:16.900Z,26.87
2019-05-10T04:59:45.367Z,28.07
2019-05-10T05:02:13.879Z,24.95
2019-05-10T05:04:42.336Z,29.02
2019-05-10T05:07:10.799Z,24.35
2019-05-10T05:09:58.635Z,22.90
2019-05-10T05:12:27.170Z,25.15
2019-05-10T05:14:55.627Z,25.80
2019-05-10T05:17:24.124Z,26.60
2019-05-10T05:19:52.594Z,28.00
2019-05-10T05:22:21.048Z,31.12
2019-05-10T05:24:49.557Z,30.17
2019-05-10T05:27:18.021Z,24.32
2019-05-10T05:29:46.477Z,21.37
2019-05-10T05:32:14.979Z,21.05
2019-05-10T05:34:43.462Z,19.67
2019-05-10T05:37:11.984Z,22.35
2019-05-10T05:39:40.485Z,20.60
2019-05-10T05:42:09.195Z,17.65
2019-05-10T05:44:37.806Z,16.57
2019-05-10T05:47:06.370Z,18.75
2019-05-10T05:49:54.162Z,18.67
2019-05-10T05:52:22.803Z,19.17
2019-05-10T05:54:52.818Z,17.25
2019-05-10T05:57:22.270Z,17.60
2019-05-10T05:59:57.234Z,14.47
2019-05-10T06:02:21.845Z,17.75
2019-05-10T06:04:50.297Z,15.95
2019-05-10T06:07:18.814Z,17.05
2019-05-10T06:09:47.278Z,18.50
2019-05-10T06:12:15.737Z,18.17
2019-05-10T06:14:49.769Z,16.15
2019-05-10T06:17:14.414Z,18.80
2019-05-10T06:19:42.868Z,18.10
2019-05-10T06:22:11.532Z,16.00
2019-05-10T06:24:39.995Z,16.67
2019-05-10T06:27:08.457Z,19.50
2019-05-10T06:29:36.968Z,18.20
2019-05-10T06:32:05.495Z,17.70
2019-05-10T06:34:38.821Z,20.43
2019-05-10T06:37:04.260Z,17.20
2019-05-10T06:39:32.730Z,18.42
2019-05-10T06:42:01.261Z,18.55
2019-05-10T06:44:31.266Z,18.35
2019-05-10T06:47:02.145Z,17.75
2019-05-10T06:49:30.122Z,21.02
2019-05-10T06:51:58.627Z,19.92
2019-05-10T06:54:27.077Z,18.20
2019-05-10T06:56:55.524Z,14.75
2019-05-10T06:59:25.008Z,11.97
2019-05-10T07:01:54.193Z,13.03
2019-05-10T07:04:22.651Z,13.60
2019-05-10T07:06:51.139Z,11.85
2019-05-10T07:09:19.606Z,11.38
2019-05-10T07:11:48.069Z,9.75
2019-05-10T07:14:16.637Z,13.40
2019-05-10T07:16:45.156Z,9.70
2019-05-10T07:19:13.609Z,10.43
2019-05-10T07:21:44.841Z,9.40
2019-05-10T07:24:12.287Z,9.73
2019-05-10T07:26:40.823Z,10.40
2019-05-10T07:29:09.320Z,10.20
2019-05-10T07:31:37.780Z,9.83
2019-05-10T07:34:09.633Z,10.65
2019-05-10T07:36:36.550Z,12.65
2019-05-10T07:39:08.397Z,14.78
2019-05-10T07:41:36.911Z,12.58
2019-05-10T07:44:07.716Z,15.10
2019-05-10T07:46:40.018Z,9.45
2019-05-10T07:49:06.729Z,10.93
2019-05-10T07:51:35.213Z,10.58
2019-05-10T07:54:06.248Z,10.53
2019-05-10T07:56:39.091Z,8.45
2019-05-10T07:59:04.158Z,13.08
2019-05-10T08:01:52.012Z,10.63
2019-05-10T08:04:32.280Z,11.68
2019-05-10T08:06:52.108Z,7.60
2019-05-10T08:09:20.803Z,9.10
2019-05-10T08:11:54.095Z,8.05
2019-05-10T08:14:19.479Z,10.70
2019-05-10T08:16:57.674Z,9.80
2019-05-10T08:19:18.147Z,8.40
2019-05-10T08:21:48.832Z,10.65
2019-05-10T08:24:16.902Z,8.63
2019-05-10T08:26:45.534Z,7.95
2019-05-10T08:29:16.935Z,9.20
2019-05-10T08:31:50.590Z,9.10
2019-05-10T08:34:14.371Z,6.42
2019-05-10T08:36:47.530Z,10.30
2019-05-10T08:39:14.028Z,8.00
2019-05-10T08:41:43.991Z,7.20
2019-05-10T08:44:19.505Z,8.13
2019-05-10T08:46:44.361Z,5.72
2019-05-10T08:49:13.163Z,9.08
2019-05-10T08:51:47.741Z,5.40
2019-05-10T08:54:12.196Z,6.22
2019-05-10T08:56:43.962Z,7.87
2019-05-10T08:59:16.323Z,5.28
2019-05-10T09:01:46.916Z,7.05
2019-05-10T09:04:13.811Z,8.13
2019-05-10T09:06:42.127Z,4.90
2019-05-10T09:09:12.568Z,4.17
2019-05-10T09:11:43.924Z,5.95
2019-05-10T09:14:12.308Z,3.87
2019-05-10T09:16:45.668Z,7.55
2019-05-10T09:19:12.432Z,4.87
2019-05-10T09:21:49.311Z,5.05
2019-05-10T09:24:12.833Z,4.87
2019-05-10T09:26:41.920Z,3.70
2019-05-10T09:29:12.145Z,3.67
2019-05-10T09:31:45.944Z,4.47
2019-05-10T09:34:12.244Z,4.85
2019-05-10T09:36:44.912Z,3.58
2019-05-10T09:39:17.711Z,4.47
2019-05-10T09:41:42.187Z,4.92
2019-05-10T09:44:13.073Z,6.25
2019-05-10T09:46:42.338Z,3.42
2019-05-10T09:49:15.768Z,5.35
2019-05-10T09:51:42.256Z,4.35
2019-05-10T09:54:10.985Z,4.67
2019-05-10T09:56:44.439Z,4.87
2019-05-10T09:59:09.650Z,6.53
2019-05-10T10:01:38.110Z,5.28
2019-05-10T10:04:06.668Z,4.87
2019-05-10T10:06:36.945Z,6.28
2019-05-10T10:09:07.905Z,6.58
2019-05-10T10:11:37.514Z,7.92
2019-05-10T10:14:07.624Z,6.87
2019-05-10T10:16:36.300Z,8.95
2019-05-10T10:19:07.032Z,5.47
2019-05-10T10:21:38.589Z,6.25
2019-05-10T10:24:15.791Z,6.85
2019-05-10T10:26:37.923Z,9.30
2019-05-10T10:29:07.335Z,11.48
2019-05-10T10:31:50.076Z,12.63
2019-05-10T10:34:07.524Z,17.15
2019-05-10T10:36:40.202Z,17.23
2019-05-10T10:39:07.597Z,18.55
2019-05-10T10:41:36.148Z,17.12
2019-05-10T10:44:04.676Z,18.07
2019-05-10T10:46:34.641Z,16.52
2019-05-10T10:49:05.520Z,19.87
2019-05-10T10:51:34.578Z,15.75
2019-05-10T10:54:03.238Z,18.05
2019-05-10T10:56:31.800Z,18.60
2019-05-10T10:59:00.247Z,18.42
2019-05-10T11:01:44.812Z,16.50
2019-05-10T11:04:03.440Z,17.55
2019-05-10T11:06:29.188Z,18.35
2019-05-10T11:08:57.651Z,18.60
2019-05-10T11:11:30.474Z,18.85
2019-05-10T11:14:00.467Z,20.90
2019-05-10T11:16:26.534Z,18.10
2019-05-10T11:18:55.473Z,20.92
2019-05-10T11:21:28.815Z,16.42
2019-05-10T11:23:54.183Z,18.05
2019-05-10T11:26:26.913Z,14.00
2019-05-10T11:28:52.854Z,17.30
2019-05-10T11:31:21.484Z,15.15
2019-05-10T11:33:56.109Z,13.25
2019-05-10T11:36:21.170Z,17.48
2019-05-10T11:38:56.493Z,13.35
2019-05-10T11:41:24.207Z,10.90
2019-05-10T11:43:50.246Z,12.28
2019-05-10T11:46:20.903Z,10.70
2019-05-10T11:48:51.017Z,13.08
2019-05-10T11:51:21.176Z,11.63
2019-05-10T11:53:55.556Z,11.25
2019-05-10T11:56:26.794Z,12.95
2019-05-10T11:58:54.888Z,13.35
2019-05-10T12:01:22.263Z,14.10
2019-05-10T12:03:50.429Z,17.12
2019-05-10T12:06:21.231Z,15.53
2019-05-10T12:08:52.791Z,14.03
2019-05-10T12:11:29.325Z,11.22
2019-05-10T12:13:56.788Z,10.78
2019-05-10T12:16:21.469Z,11.70
2019-05-10T12:19:05.507Z,10.50
2019-05-10T12:21:21.781Z,11.00
2019-05-10T12:23:55.569Z,13.55
2019-05-10T12:28:51.168Z,12.45
2019-05-10T12:31:21.090Z,16.02
2019-05-10T12:33:50.585Z,14.87
2019-05-10T12:36:25.599Z,16.17
2019-05-10T12:38:49.479Z,16.95
2019-05-10T12:41:17.995Z,15.43
2019-05-10T12:43:48.479Z,15.53
2019-05-10T12:46:16.708Z,16.40
2019-05-10T12:48:45.224Z,16.75
2019-05-10T12:51:16.268Z,17.27
2019-05-10T12:53:47.643Z,17.02
2019-05-10T12:56:14.211Z,20.00
2019-05-10T12:58:42.748Z,18.70
2019-05-10T13:01:11.268Z,21.35
2019-05-10T13:03:39.791Z,18.92
2019-05-10T13:06:08.252Z,19.15
2019-05-10T13:08:36.709Z,19.52
2019-05-10T13:11:05.280Z,20.15
2019-05-10T13:13:33.750Z,17.62
2019-05-10T13:16:03.426Z,17.55
2019-05-10T13:18:49.847Z,17.55
2019-05-10T13:21:02.784Z,20.27
2019-05-10T13:23:31.230Z,17.82
2019-05-10T13:25:59.725Z,21.42
2019-05-10T13:28:28.187Z,21.10
2019-05-10T13:30:59.780Z,18.80
2019-05-10T13:33:29.320Z,19.32
2019-05-10T13:35:58.583Z,18.05
2019-05-10T13:38:27.530Z,18.02
2019-05-10T13:40:58.286Z,16.00
2019-05-10T13:43:28.216Z,17.35
2019-05-10T13:45:56.978Z,17.30
2019-05-10T13:48:26.629Z,16.50
2019-05-10T13:50:55.748Z,13.88
2019-05-10T13:53:24.332Z,16.40
2019-05-10T13:55:52.839Z,18.25
2019-05-10T13:58:21.288Z,15.03
2019-05-10T14:00:49.770Z,15.90
2019-05-10T14:03:18.341Z,15.48
2019-05-10T14:05:46.800Z,15.53
2019-05-10T14:08:15.335Z,16.52
2019-05-10T14:10:43.894Z,15.72
2019-05-10T14:13:16.380Z,14.25
2019-05-10T14:15:42.535Z,15.40
2019-05-10T14:18:11.116Z,14.18
2019-05-10T14:20:39.643Z,15.58
2019-05-10T14:23:08.109Z,15.43
2019-05-10T14:25:38.755Z,14.15
2019-05-10T14:28:09.637Z,14.95
2019-05-10T14:30:36.983Z,16.80
2019-05-10T14:33:08.720Z,17.00
2019-05-10T14:35:35.658Z,16.23
2019-05-10T14:38:08.801Z,12.25
2019-05-10T14:40:34.507Z,15.45
2019-05-10T14:43:02.958Z,17.05
2019-05-10T14:45:31.434Z,15.35
2019-05-10T14:47:59.932Z,15.20
2019-05-10T14:50:28.657Z,17.70
2019-05-10T14:52:57.367Z,15.95
2019-05-10T14:55:27.877Z,14.58
2019-05-10T14:57:56.097Z,13.88
2019-05-10T15:00:24.897Z,14.25
2019-05-10T15:02:56.653Z,17.07
2019-05-10T15:05:24.389Z,14.05
2019-05-10T15:07:52.857Z,13.15
2019-05-10T15:10:21.362Z,13.45
2019-05-10T15:12:49.816Z,15.10
2019-05-10T15:15:18.521Z,15.40
2019-05-10T15:17:47.023Z,14.47
2019-05-10T15:20:15.545Z,16.85
2019-05-10T15:22:44.003Z,15.45
2019-05-10T15:25:12.940Z,13.05
2019-05-10T15:27:41.399Z,14.55
2019-05-10T15:30:11.797Z,15.50
2019-05-10T15:32:40.311Z,14.53
2019-05-10T15:35:09.404Z,11.90
2019-05-10T15:37:40.841Z,11.53
2019-05-10T15:40:09.622Z,12.13
2019-05-10T15:42:38.512Z,15.00
2019-05-10T15:45:12.121Z,13.65
2019-05-10T15:47:50.834Z,11.95
2019-05-10T15:50:10.806Z,12.88
2019-05-10T15:52:45.663Z,13.43
2019-05-10T15:55:09.821Z,13.38
2019-05-10T15:57:38.384Z,12.28
2019-05-10T16:00:08.053Z,12.47
2019-05-10T16:02:36.566Z,13.32
2019-05-10T16:05:23.231Z,13.53
2019-05-10T16:07:37.490Z,10.70
2019-05-10T16:10:06.602Z,13.13
2019-05-10T16:12:37.789Z,10.80
2019-05-10T16:15:06.983Z,10.68
2019-05-10T16:17:35.490Z,13.48
2019-05-10T16:20:04.279Z,10.75
2019-05-10T16:22:32.747Z,10.58
2019-05-10T16:25:02.798Z,12.33
2019-05-10T16:27:33.944Z,13.50
2019-05-10T16:30:01.732Z,12.50
2019-05-10T16:32:34.525Z,10.03
2019-05-10T16:35:06.018Z,11.68
2019-05-10T16:37:30.609Z,12.93
2019-05-10T16:39:59.105Z,11.35
2019-05-10T16:42:33.683Z,11.73
2019-05-10T16:44:57.752Z,11.78
2019-05-10T16:47:26.269Z,12.10
2019-05-10T16:49:55.196Z,11.65
2019-05-10T16:52:26.176Z,10.80
2019-05-10T16:54:57.819Z,11.08
2019-05-10T16:57:24.270Z,11.30
2019-05-10T16:59:52.726Z,9.88
2019-05-10T17:02:21.230Z,8.93
2019-05-10T17:04:49.760Z,31.40
2019-05-10T17:07:18.822Z,8.85
2019-05-10T17:09:49.469Z,10.48
2019-05-10T17:12:22.146Z,11.97
2019-05-10T17:14:50.447Z,11.53
2019-05-10T17:17:19.122Z,10.30
2019-05-10T17:19:47.581Z,10.78
2019-05-10T17:22:16.043Z,10.88
2019-05-10T17:24:44.549Z,10.80
2019-05-10T17:27:12.992Z,10.00
2019-05-10T17:29:44.602Z,10.38
2019-05-10T17:32:11.698Z,11.00
2019-05-10T17:34:40.160Z,10.82
2019-05-10T17:37:08.616Z,11.20
2019-05-10T17:39:37.123Z,10.00
2019-05-10T17:42:05.579Z,9.78
2019-05-10T17:44:34.121Z,10.72
2019-05-10T17:47:02.609Z,11.08
2019-05-10T17:49:31.128Z,10.13
2019-05-10T17:51:59.593Z,10.30
2019-05-10T17:54:28.094Z,10.20
2019-05-10T17:56:56.541Z,10.43
2019-05-10T17:59:24.990Z,9.00
2019-05-10T18:01:53.491Z,10.13
2019-05-10T18:04:21.947Z,10.20
2019-05-10T18:06:50.469Z,10.70
2019-05-10T18:09:18.973Z,10.72
2019-05-10T18:11:47.493Z,9.28
2019-05-10T18:14:17.876Z,14.03
2019-05-10T18:16:47.939Z,10.58
2019-05-10T18:19:19.261Z,11.75
2019-05-10T18:21:46.675Z,11.45
2019-05-10T18:24:15.182Z,10.20
2019-05-10T18:26:43.636Z,11.73
2019-05-10T18:29:12.098Z,10.40
2019-05-10T18:31:40.584Z,10.65
2019-05-10T18:34:09.049Z,9.45
2019-05-10T18:36:51.071Z,10.10
2019-05-10T18:39:14.748Z,11.00
2019-05-10T18:41:41.389Z,9.55
2019-05-10T18:44:14.186Z,11.28
2019-05-10T18:46:39.353Z,10.78
2019-05-10T18:49:07.813Z,13.30
2019-05-10T18:51:36.277Z,14.60
2019-05-10T18:54:04.858Z,15.55
2019-05-10T18:56:33.364Z,14.78
2019-05-10T18:59:07.441Z,14.63
2019-05-10T19:01:33.025Z,14.15
2019-05-10T19:04:07.241Z,13.58
2019-05-10T19:06:32.559Z,14.87
2019-05-10T19:09:01.125Z,14.33
2019-05-10T19:11:33.252Z,13.90
2019-05-10T19:13:59.860Z,13.43
2019-05-10T19:16:32.125Z,15.55
2019-05-10T19:19:01.837Z,13.90
2019-05-10T19:21:30.817Z,15.23
2019-05-10T19:23:59.508Z,15.18
2019-05-10T19:26:30.011Z,16.07
2019-05-10T19:28:58.984Z,16.57
2019-05-10T19:31:31.554Z,17.07
2019-05-10T19:33:58.589Z,15.28
2019-05-10T19:36:27.047Z,18.20
2019-05-10T19:38:55.552Z,15.32
2019-05-10T19:41:25.669Z,15.60
2019-05-10T19:43:55.830Z,15.23
2019-05-10T19:46:24.440Z,16.07
2019-05-10T19:48:52.910Z,22.42
2019-05-10T19:51:22.818Z,18.32
2019-05-10T19:53:51.559Z,16.87
2019-05-10T19:56:20.025Z,18.95
2019-05-10T19:58:49.423Z,17.98
2019-05-10T20:01:18.155Z,19.32
2019-05-10T20:03:46.621Z,19.02
2019-05-10T20:06:15.067Z,18.92
2019-05-10T20:08:43.564Z,18.60
2019-05-10T20:11:12.094Z,16.80
2019-05-10T20:13:40.559Z,18.98
2019-05-10T20:16:09.060Z,18.92
2019-05-10T20:18:37.526Z,20.17
2019-05-10T20:21:06.068Z,20.08
2019-05-10T20:23:34.629Z,21.23
2019-05-10T20:26:03.096Z,18.57
2019-05-10T20:28:31.556Z,17.98
2019-05-10T20:31:00.058Z,18.73
2019-05-10T20:33:28.527Z,18.90
2019-05-10T20:35:56.980Z,18.50
2019-05-10T20:38:25.551Z,18.07
2019-05-10T20:40:54.011Z,20.57
2019-05-10T20:43:22.474Z,19.00
2019-05-10T20:45:51.046Z,17.67
2019-05-10T20:48:19.528Z,23.18
2019-05-10T20:50:48.044Z,24.32
2019-05-10T20:53:16.609Z,22.67
2019-05-10T20:55:45.097Z,27.22
2019-05-10T20:58:13.614Z,24.55
2019-05-10T21:00:42.101Z,28.40
2019-05-10T21:03:10.557Z,27.45
2019-05-10T21:05:39.015Z,30.32
2019-05-10T21:08:16.507Z,25.25
2019-05-10T21:10:37.696Z,27.40
2019-05-10T21:13:06.149Z,27.40
2019-05-10T21:15:34.657Z,26.75
2019-05-10T21:18:03.212Z,32.98
2019-05-10T21:20:31.748Z,35.60
2019-05-10T21:23:00.258Z,33.35
2019-05-10T21:25:28.716Z,28.27
2019-05-10T21:27:57.172Z,25.68
2019-05-10T21:30:25.685Z,25.37
2019-05-10T21:32:54.204Z,27.07
2019-05-10T21:35:22.657Z,29.60
2019-05-10T21:37:51.158Z,29.48
2019-05-10T21:40:19.624Z,27.27
2019-05-10T21:42:48.084Z,26.68
2019-05-10T21:45:16.595Z,23.87
2019-05-10T21:47:51.765Z,24.87
2019-05-10T21:50:15.313Z,23.83
2019-05-10T21:52:43.806Z,28.30
2019-05-10T21:55:12.336Z,25.02
2019-05-10T21:57:40.804Z,23.98
2019-05-10T22:00:11.504Z,23.65
2019-05-10T22:02:40.062Z,22.62
2019-05-10T22:05:08.846Z,25.12
2019-05-10T22:07:37.535Z,22.15
2019-05-10T22:10:07.539Z,23.12
2019-05-10T22:12:35.999Z,22.07
2019-05-10T22:15:06.851Z,22.07
2019-05-10T22:17:35.326Z,23.07
2019-05-10T22:20:23.234Z,24.07
2019-05-10T22:22:51.774Z,22.70
2019-05-10T22:25:20.237Z,25.95
2019-05-10T22:27:48.736Z,23.87
2019-05-10T22:30:17.363Z,22.70
2019-05-10T22:32:45.818Z,22.10
2019-05-10T22:35:14.391Z,22.75
2019-05-10T22:37:42.932Z,21.77
2019-05-10T22:40:11.632Z,23.40
2019-05-10T22:42:40.196Z,23.83
2019-05-10T22:45:08.893Z,22.58
2019-05-10T22:47:37.427Z,26.65
2019-05-10T22:50:07.580Z,23.15
2019-05-10T22:52:36.171Z,24.45
2019-05-10T22:55:05.568Z,21.73
2019-05-10T22:57:34.111Z,24.20
2019-05-10T23:00:03.306Z,24.37
2019-05-10T23:02:31.762Z,25.27
2019-05-10T23:05:00.258Z,26.68
2019-05-10T23:07:28.715Z,28.73
2019-05-10T23:09:57.171Z,28.12
2019-05-10T23:12:25.679Z,29.35
2019-05-10T23:14:54.206Z,26.05
2019-05-10T23:17:22.666Z,30.08
2019-05-10T23:19:51.170Z,26.00
2019-05-10T23:22:19.694Z,28.05
2019-05-10T23:24:48.144Z,26.87
2019-05-10T23:27:16.716Z,27.73
2019-05-10T23:29:45.177Z,25.68
2019-05-10T23:32:13.706Z,27.98
2019-05-10T23:34:42.220Z,28.12
2019-05-10T23:37:10.745Z,29.55
2019-05-10T23:39:41.230Z,32.70
2019-05-10T23:42:09.583Z,28.95
2019-05-10T23:44:38.048Z,26.70
2019-05-10T23:47:06.511Z,30.92
2019-05-10T23:49:35.030Z,35.45
2019-05-10T23:52:03.815Z,30.62
2019-05-10T23:54:32.702Z,32.73
2019-05-10T23:57:01.281Z,28.35
2019-05-10T23:59:29.742Z,30.80
